Time;durP1;ratioP1;P1;durP2;ratioP2;P2;SDS_P1;SDS_P2;PMS_P1;PMS_P2;Temp;Humidity;BMP_temperature;BMP_pressure;BME280_temperature;BME280_humidity;BME280_pressure;Samples;Min_cycle;Max_cycle;Signal;HPM_P1;HPM_P2
2022/05/11 00:01:52;;;;;;;;;;;;;;;13.17;69.76;99878.19;5094481;28;19924;-65
2022/05/11 00:04:21;;;;;;;;;;;;;;;13.09;69.26;99881.69;5094023;28;19969;-65
2022/05/11 00:06:51;;;;;;;;;;;;;;;13.05;69.57;99878.22;5094384;28;19924;-66
2022/05/11 00:09:20;;;;;;;;;;;;;;;13.03;69.37;99879.97;5094433;28;19924;-65
2022/05/11 00:11:48;;;;;;;;;;;;;;;12.93;69.57;99886.03;5094332;28;19947;-65
2022/05/11 00:14:17;;;;;;;;;;;;;;;12.95;69.53;99883.47;5093944;28;19928;-65
2022/05/11 00:16:46;;;;;;;;;;;;;;;12.91;69.63;99874.94;5094226;28;19924;-65
2022/05/11 00:19:16;;;;;;;;;;;;;;;12.90;69.68;99873.25;5093856;28;19978;-66
2022/05/11 00:21:45;;;;;;;;;;;;;;;12.87;69.91;99873.25;5094256;28;19932;-65
2022/05/11 00:24:27;;;;;;;;;;;;;;;12.86;70.20;99871.53;5093934;28;19942;-65
2022/05/11 00:26:56;;;;;;;;;;;;;;;12.90;69.83;99870.69;5094589;28;20246;-65
2022/05/11 00:29:25;;;;;;;;;;;;;;;12.92;69.89;99866.41;5093832;28;20340;-65
2022/05/11 00:31:54;;;;;;;;;;;;;;;12.94;70.08;99867.22;5094165;28;20432;-65
2022/05/11 00:34:22;;;;;;;;;;;;;;;12.89;70.22;99873.25;5094108;28;19924;-65
2022/05/11 00:36:51;;;;;;;;;;;;;;;12.89;70.15;99871.53;5094357;28;19969;-65
2022/05/11 00:39:20;;;;;;;;;;;;;;;12.89;70.20;99873.25;5094552;28;19973;-65
2022/05/11 00:41:51;;;;;;;;;;;;;;;12.88;69.94;99872.41;5093667;28;19970;-65
2022/05/11 00:44:20;;;;;;;;;;;;;;;12.88;69.89;99864.72;5094046;28;19924;-66
2022/05/11 00:46:53;;;;;;;;;;;;;;;12.91;69.88;99872.38;5094335;28;19931;-66
2022/05/11 00:52:05;;;;;;;;;;;;;;;12.87;69.79;99865.56;5093661;28;19968;-65
2022/05/11 00:54:36;;;;;;;;;;;;;;;12.82;69.96;99861.34;5093934;28;19947;-65
2022/05/11 00:57:08;;;;;;;;;;;;;;;12.72;70.08;99866.53;5093643;28;19928;-66
2022/05/11 00:59:38;;;;;;;;;;;;;;;12.70;70.27;99860.56;5093576;28;19924;-65
2022/05/11 01:02:08;;;;;;;;;;;;;;;12.69;70.23;99865.72;5093963;28;20009;-66
2022/05/11 01:04:38;;;;;;;;;;;;;;;12.62;70.21;99869.16;5093457;28;19930;-65
2022/05/11 01:07:09;;;;;;;;;;;;;;;12.67;70.34;99862.28;5095607;28;20361;-65
2022/05/11 01:09:38;;;;;;;;;;;;;;;12.65;70.25;99858.88;5097370;28;19924;-65
2022/05/11 01:12:10;;;;;;;;;;;;;;;12.64;70.40;99852.09;5098293;28;20376;-66
2022/05/11 01:14:42;;;;;;;;;;;;;;;12.67;70.57;99857.16;5097125;28;19931;-65
2022/05/11 01:17:11;;;;;;;;;;;;;;;12.67;70.60;99852.91;5097163;28;19924;-66
2022/05/11 01:19:41;;;;;;;;;;;;;;;12.69;70.50;99855.47;5097267;28;19924;-65
2022/05/11 01:22:13;;;;;;;;;;;;;;;12.70;70.50;99852.03;5096421;28;19924;-65
2022/05/11 01:24:43;;;;;;;;;;;;;;;12.70;70.49;99852.03;5097303;28;20386;-65
2022/05/11 01:27:22;;;;;;;;;;;;;;;12.66;70.41;99851.22;5097184;28;20286;-65
2022/05/11 01:29:51;;;;;;;;;;;;;;;12.61;70.48;99849.53;5097175;28;20259;-65
2022/05/11 01:32:20;;;;;;;;;;;;;;;12.60;70.69;99846.13;5097076;28;19994;-65
2022/05/11 01:34:49;;;;;;;;;;;;;;;12.59;70.59;99844.44;5096780;28;20374;-65
2022/05/11 01:37:18;;;;;;;;;;;;;;;12.54;70.51;99846.16;5096567;28;20381;-65
2022/05/11 01:39:48;;;;;;;;;;;;;;;12.50;70.82;99848.75;5096555;28;20022;-65
2022/05/11 01:42:19;;;;;;;;;;;;;;;12.44;71.03;99843.66;5096634;28;20007;-65
2022/05/11 01:44:47;;;;;;;;;;;;;;;12.39;70.98;99851.38;5096632;28;20475;-65
2022/05/11 01:47:16;;;;;;;;;;;;;;;12.38;71.09;99848.81;5096471;28;19973;-65
2022/05/11 01:49:45;;;;;;;;;;;;;;;12.40;71.01;99859.91;5096773;28;19985;-66
2022/05/11 01:52:13;;;;;;;;;;;;;;;12.42;70.99;99860.75;5096752;28;20011;-65
2022/05/11 01:54:42;;;;;;;;;;;;;;;12.39;70.98;99861.59;5096388;28;19924;-65
2022/05/11 01:57:12;;;;;;;;;;;;;;;12.39;70.97;99865.88;5096346;28;19928;-65
2022/05/11 01:59:41;;;;;;;;;;;;;;;12.37;70.95;99870.16;5096668;28;19967;-66
2022/05/11 02:02:09;;;;;;;;;;;;;;;12.29;71.05;99867.63;5096834;28;19924;-66
2022/05/11 02:09:54;;;;;;;;;;;;;;;12.30;71.29;99865.91;5096140;28;19924;-66
2022/05/11 02:12:27;;;;;;;;;;;;;;;12.32;71.27;99864.19;5096027;28;19924;-66
2022/05/11 02:14:56;;;;;;;;;;;;;;;12.33;71.20;99869.34;5096357;28;20446;-66
2022/05/11 02:17:28;;;;;;;;;;;;;;;12.34;70.95;99868.47;5095189;28;19928;-66
2022/05/11 02:19:56;;;;;;;;;;;;;;;12.35;70.88;99869.31;5095887;28;20059;-66
2022/05/11 02:22:25;;;;;;;;;;;;;;;12.34;70.68;99867.59;5096109;28;19975;-66
2022/05/11 02:24:54;;;;;;;;;;;;;;;12.31;70.57;99867.63;5096091;28;20332;-66
2022/05/11 02:27:23;;;;;;;;;;;;;;;12.27;70.77;99874.47;5095666;28;19971;-66
2022/05/11 02:29:53;;;;;;;;;;;;;;;12.26;70.99;99869.38;5095638;28;20271;-66
2022/05/11 02:32:21;;;;;;;;;;;;;;;12.22;71.03;99871.06;5095944;28;19928;-66
2022/05/11 02:37:29;;;;;;;;;;;;;;;12.15;71.21;99871.09;5095805;28;20292;-65
2022/05/11 02:39:58;;;;;;;;;;;;;;;12.00;71.22;99862.63;5095687;28;19924;-65
2022/05/11 02:42:26;;;;;;;;;;;;;;;11.88;71.73;99862.66;5095781;28;19927;-65
2022/05/11 02:44:57;;;;;;;;;;;;;;;11.79;71.73;99857.59;5095727;28;19924;-66
2022/05/11 02:47:25;;;;;;;;;;;;;;;11.74;72.14;99861.84;5095399;28;19977;-65
2022/05/11 02:49:54;;;;;;;;;;;;;;;11.71;72.08;99861.03;5095269;28;19924;-65
2022/05/11 02:52:23;;;;;;;;;;;;;;;11.63;72.09;99858.47;5095245;28;20011;-66
2022/05/11 02:54:51;;;;;;;;;;;;;;;11.55;72.50;99861.88;5095165;28;19960;-65
2022/05/11 02:57:20;;;;;;;;;;;;;;;11.47;72.46;99859.31;5095152;28;19970;-65
2022/05/11 02:59:49;;;;;;;;;;;;;;;11.43;72.90;99857.63;5095541;28;19924;-65
2022/05/11 03:02:20;;;;;;;;;;;;;;;11.44;73.04;99856.78;5095066;28;20393;-65
2022/05/11 03:04:49;;;;;;;;;;;;;;;11.37;73.17;99857.66;5095274;28;19928;-65
2022/05/11 03:07:18;;;;;;;;;;;;;;;11.31;73.25;99853.38;5095219;28;19964;-65
2022/05/11 03:09:47;;;;;;;;;;;;;;;11.29;73.33;99856.78;5095246;28;19930;-65
2022/05/11 03:12:16;;;;;;;;;;;;;;;11.20;73.54;99850.00;5095217;28;19924;-65
2022/05/11 03:14:46;;;;;;;;;;;;;;;11.18;74.21;99846.56;5095168;28;19925;-65
2022/05/11 03:17:14;;;;;;;;;;;;;;;11.19;74.28;99844.88;5094727;28;19925;-66
2022/05/11 03:19:45;;;;;;;;;;;;;;;11.13;74.48;99847.44;5094517;28;19930;-65
2022/05/11 03:22:13;;;;;;;;;;;;;;;11.14;74.56;99850.00;5094494;28;20010;-65
2022/05/11 03:24:42;;;;;;;;;;;;;;;11.20;74.50;99851.69;5094725;28;19924;-65
2022/05/11 03:27:10;;;;;;;;;;;;;;;11.24;74.11;99853.38;5094607;28;19931;-66
2022/05/11 03:29:39;;;;;;;;;;;;;;;11.28;74.25;99853.38;5087111;28;19986;-66
2022/05/11 03:34:46;;;;;;;;;;;;;;;11.51;73.69;99853.38;5081930;28;19982;-65
2022/05/11 03:37:16;;;;;;;;;;;;;;;11.59;73.58;99858.47;5073855;28;20302;-65
2022/05/11 03:39:45;;;;;;;;;;;;;;;11.69;73.31;99850.78;5074353;28;19924;-65
2022/05/11 03:42:14;;;;;;;;;;;;;;;11.75;72.92;99855.03;5074044;28;19931;-65
2022/05/11 03:44:43;;;;;;;;;;;;;;;11.79;72.61;99846.50;5074097;28;20018;-65
2022/05/11 03:47:12;;;;;;;;;;;;;;;11.75;72.62;99855.91;5074393;28;19932;-65
2022/05/11 03:49:40;;;;;;;;;;;;;;;11.75;72.38;99845.66;5074181;28;19925;-65
2022/05/11 03:52:16;;;;;;;;;;;;;;;11.78;72.37;99845.63;5073903;28;19931;-65
2022/05/11 03:54:45;;;;;;;;;;;;;;;11.77;72.35;99848.22;5074456;28;19924;-65
2022/05/11 03:57:14;;;;;;;;;;;;;;;11.79;72.46;99843.94;5073948;28;19978;-65
2022/05/11 03:59:42;;;;;;;;;;;;;;;11.78;72.35;99845.63;5073816;28;19964;-65
2022/05/11 04:02:10;;;;;;;;;;;;;;;11.79;72.50;99847.34;5073880;28;19929;-65
2022/05/11 04:04:39;;;;;;;;;;;;;;;11.87;72.39;99845.63;5074130;28;19924;-65
2022/05/11 04:07:08;;;;;;;;;;;;;;;11.96;72.27;99849.84;5073859;28;19974;-65
2022/05/11 04:09:38;;;;;;;;;;;;;;;12.00;72.14;99856.66;5074133;28;20308;-65
2022/05/11 04:12:08;;;;;;;;;;;;;;;12.08;72.17;99853.22;5074093;28;20019;-65
2022/05/11 04:14:36;;;;;;;;;;;;;;;12.17;72.19;99848.91;5073842;28;19975;-65
2022/05/11 04:17:14;;;;;;;;;;;;;;;12.24;71.83;99850.59;5074073;28;20382;-65
2022/05/11 04:19:43;;;;;;;;;;;;;;;12.33;71.45;99855.69;5074096;28;19982;-65
2022/05/11 04:22:12;;;;;;;;;;;;;;;12.42;71.06;99860.75;5073379;28;19924;-65
2022/05/11 04:28:01;;;;;;;;;;;;;;;12.67;70.02;99863.13;4935516;29;19934;-67
2022/05/11 04:30:34;;;;;;;;;;;;;;;12.79;69.43;99857.94;4936807;29;20018;-67
2022/05/11 04:33:03;;;;;;;;;;;;;;;12.89;68.66;99857.88;4936861;29;19927;-68
2022/05/11 04:35:38;;;;;;;;;;;;;;;12.98;68.23;99857.81;4936455;29;20389;-68
2022/05/11 04:38:07;;;;;;;;;;;;;;;13.09;68.12;99861.19;4936444;29;19926;-68
2022/05/11 04:40:36;;;;;;;;;;;;;;;13.17;67.83;99864.53;4936542;29;19926;-68
2022/05/11 04:43:11;;;;;;;;;;;;;;;13.25;67.28;99863.59;4940343;29;19950;-68
2022/05/11 04:45:40;;;;;;;;;;;;;;;13.35;67.06;99869.50;4940144;29;19927;-69
2022/05/11 04:48:09;;;;;;;;;;;;;;;13.38;66.75;99870.31;4940415;29;19933;-68
2022/05/11 04:50:42;;;;;;;;;;;;;;;13.49;66.19;99871.91;4940434;29;20029;-68
2022/05/11 04:53:11;;;;;;;;;;;;;;;13.61;65.98;99871.81;4940056;29;19974;-69
2022/05/11 04:55:40;;;;;;;;;;;;;;;13.74;66.08;99863.97;4940346;29;19930;-69
2022/05/11 04:58:19;;;;;;;;;;;;;;;13.93;66.02;99869.75;4939972;29;19931;-68
2022/05/11 05:00:49;;;;;;;;;;;;;;;14.06;65.76;99866.16;4939758;29;19936;-68
2022/05/11 05:03:26;;;;;;;;;;;;;;;14.20;65.32;99877.16;4939785;29;19926;-68
2022/05/11 05:05:55;;;;;;;;;;;;;;;14.30;64.85;99873.59;4923076;29;20380;-68
2022/05/11 05:08:24;;;;;;;;;;;;;;;14.42;64.63;99873.44;4940102;29;19927;-68
2022/05/11 05:10:54;;;;;;;;;;;;;;;14.58;64.36;99876.66;4940272;29;19954;-67
2022/05/11 05:13:24;;;;;;;;;;;;;;;14.68;63.30;99873.13;4954373;29;19959;-68
2022/05/11 05:15:55;;;;;;;;;;;;;;;14.81;62.85;99878.91;4939609;29;19934;-68
2022/05/11 05:18:24;;;;;;;;;;;;;;;14.82;62.31;99880.59;4939551;29;20384;-68
2022/05/11 05:20:53;;;;;;;;;;;;;;;14.77;62.17;99878.97;4939343;29;19982;-67
2022/05/11 05:23:22;;;;;;;;;;;;;;;14.88;62.39;99875.38;4939652;29;19931;-67
2022/05/11 05:25:50;;;;;;;;;;;;;;;15.01;62.66;99877.75;4948519;28;20006;-67
2022/05/11 05:33:39;;;;;;;;;;;;;;;15.34;61.52;99881.47;4976800;28;20392;-67
2022/05/11 05:36:08;;;;;;;;;;;;;;;15.34;60.87;99886.63;4977021;28;20005;-68
2022/05/11 05:38:38;;;;;;;;;;;;;;;15.35;60.73;99878.91;4977507;28;19938;-67
2022/05/11 05:41:07;;;;;;;;;;;;;;;15.45;60.86;99884.78;4977573;28;19932;-67
2022/05/11 05:43:36;;;;;;;;;;;;;;;15.61;60.97;99881.06;4977467;28;19926;-68
2022/05/11 05:46:06;;;;;;;;;;;;;;;15.78;60.86;99879.03;4977535;28;20029;-68
2022/05/11 05:48:35;;;;;;;;;;;;;;;16.01;60.39;99876.84;4977442;28;19969;-68
2022/05/11 05:51:04;;;;;;;;;;;;;;;16.10;59.98;99870.66;4977426;28;20384;-67
2022/05/11 05:53:33;;;;;;;;;;;;;;;16.19;59.29;99872.22;4977606;28;19973;-67
2022/05/11 05:56:02;;;;;;;;;;;;;;;16.24;59.17;99872.97;4977668;28;20021;-68
2022/05/11 05:58:31;;;;;;;;;;;;;;;16.22;59.08;99870.41;4977399;28;19926;-67
2022/05/11 06:00:59;;;;;;;;;;;;;;;16.26;59.24;99871.22;4976278;28;20380;-67
2022/05/11 06:03:31;;;;;;;;;;;;;;;16.41;59.19;99874.28;4977508;28;19966;-66
2022/05/11 06:06:05;;;;;;;;;;;;;;;16.59;59.18;99865.38;4977272;28;20415;-66
2022/05/11 06:08:33;;;;;;;;;;;;;;;16.69;59.18;99866.84;4977410;28;19926;-66
2022/05/11 06:11:02;;;;;;;;;;;;;;;16.85;58.84;99873.34;4976980;28;19933;-67
2022/05/11 06:13:30;;;;;;;;;;;;;;;16.86;58.68;99867.31;4977254;28;20341;-67
2022/05/11 06:15:59;;;;;;;;;;;;;;;17.00;58.82;99861.84;4976957;28;20364;-66
2022/05/11 06:18:29;;;;;;;;;;;;;;;17.18;58.66;99869.16;4977042;28;20368;-66
2022/05/11 06:20:58;;;;;;;;;;;;;;;17.27;58.05;99864.59;4976773;28;19927;-67
2022/05/11 06:23:26;;;;;;;;;;;;;;;17.30;57.43;99867.09;4977023;28;19981;-67
2022/05/11 06:25:55;;;;;;;;;;;;;;;17.40;57.71;99862.53;4976750;28;20443;-67
2022/05/11 06:28:24;;;;;;;;;;;;;;;17.52;57.88;99867.41;4976796;28;19926;-66
2022/05/11 06:31:13;;;;;;;;;;;;;;;17.67;57.29;99867.03;4976331;28;20343;-67
2022/05/11 06:33:47;;;;;;;;;;;;;;;17.69;56.58;99864.41;4976896;28;19962;-67
2022/05/11 06:36:15;;;;;;;;;;;;;;;17.91;57.08;99870.69;4976924;28;20386;-67
2022/05/11 06:38:44;;;;;;;;;;;;;;;18.11;56.74;99868.41;4976815;28;19957;-66
2022/05/11 06:41:14;;;;;;;;;;;;;;;18.25;56.60;99871.44;4976455;28;19926;-67
2022/05/11 06:43:44;;;;;;;;;;;;;;;18.27;56.57;99873.97;4976346;28;20368;-67
2022/05/11 06:46:13;;;;;;;;;;;;;;;18.30;56.29;99869.56;4976389;28;19981;-66
2022/05/11 06:48:45;;;;;;;;;;;;;;;18.27;56.41;99874.81;4976341;28;19926;-66
2022/05/11 06:51:14;;;;;;;;;;;;;;;18.32;56.11;99872.94;4976827;28;20383;-67
2022/05/11 07:01:40;;;;;;;;;;;;;;;18.73;56.41;99879.50;4976384;28;19949;-67
2022/05/11 07:04:11;;;;;;;;;;;;;;;18.93;57.38;99871.13;4976322;28;19926;-67
2022/05/11 07:06:40;;;;;;;;;;;;;;;19.02;56.34;99873.44;4976017;28;19980;-66
2022/05/11 07:09:09;;;;;;;;;;;;;;;19.06;55.18;99872.41;4976260;28;19930;-66
2022/05/11 07:14:17;;;;;;;;;;;;;;;19.33;55.10;99876.72;4976469;28;19927;-66
2022/05/11 07:16:45;;;;;;;;;;;;;;;19.57;55.46;99875.91;4976213;28;20287;-66
2022/05/11 07:19:16;;;;;;;;;;;;;;;19.79;55.12;99876.88;4975684;28;19981;-66
2022/05/11 07:21:45;;;;;;;;;;;;;;;19.91;55.04;99881.63;4975564;28;19926;-66
2022/05/11 07:24:14;;;;;;;;;;;;;;;19.92;54.97;99875.53;4975904;28;19926;-66
2022/05/11 07:26:42;;;;;;;;;;;;;;;20.00;54.59;99876.13;4975754;28;19957;-66
2022/05/11 07:29:12;;;;;;;;;;;;;;;20.04;54.04;99867.31;4975961;28;20016;-66
2022/05/11 07:31:41;;;;;;;;;;;;;;;20.05;52.92;99868.16;4975854;28;19926;-66
2022/05/11 07:34:10;;;;;;;;;;;;;;;20.04;53.97;99867.31;4975813;28;19926;-66
2022/05/11 07:36:40;;;;;;;;;;;;;;;20.01;54.24;99867.41;4975557;28;19926;-68
2022/05/11 07:39:09;;;;;;;;;;;;;;;19.90;53.43;99864.38;4975983;28;19926;-66
2022/05/11 07:41:38;;;;;;;;;;;;;;;19.77;52.88;99863.09;4975235;28;19935;-67
2022/05/11 07:44:07;;;;;;;;;;;;;;;19.65;52.81;99860.94;4958289;28;19932;-67
2022/05/11 07:46:35;;;;;;;;;;;;;;;19.56;53.49;99858.69;4974169;28;19930;-66
2022/05/11 07:49:05;;;;;;;;;;;;;;;19.70;54.27;99860.81;4975253;28;19973;-67
2022/05/11 07:51:34;;;;;;;;;;;;;;;19.83;54.58;99862.91;4975389;28;19933;-66
2022/05/11 07:54:04;;;;;;;;;;;;;;;19.89;54.49;99861.84;4975644;28;20024;-66
2022/05/11 08:01:49;;;;;;;;;;;;;;;20.22;55.59;99849.41;4974847;28;20029;-66
2022/05/11 08:04:18;;;;;;;;;;;;;;;20.46;55.48;99848.53;4974687;28;20328;-67
2022/05/11 08:06:47;;;;;;;;;;;;;;;20.44;54.93;99845.16;4957944;28;20372;-66
2022/05/11 08:09:17;;;;;;;;;;;;;;;20.58;55.47;99848.03;4975436;28;19930;-66
2022/05/11 08:11:47;;;;;;;;;;;;;;;20.85;55.40;99839.16;4975454;28;20375;-66
2022/05/11 08:14:17;;;;;;;;;;;;;;;20.97;55.16;99841.25;4975132;28;19972;-66
2022/05/11 08:16:51;;;;;;;;;;;;;;;20.95;54.77;99837.88;4976973;28;19994;-66
2022/05/11 08:19:20;;;;;;;;;;;;;;;20.99;55.55;99839.47;4979153;28;19933;-67
2022/05/11 08:21:49;;;;;;;;;;;;;;;21.09;56.59;99839.97;4979286;28;20379;-70
2022/05/11 08:24:19;;;;;;;;;;;;;;;21.26;57.19;99843.53;4979585;28;19985;-67
2022/05/11 08:26:50;;;;;;;;;;;;;;;21.33;56.28;99839.78;4978848;28;20287;-69
2022/05/11 08:34:44;;;;;;;;;;;;;;;21.52;56.01;99836.44;4978772;28;19926;-68
2022/05/11 08:37:13;;;;;;;;;;;;;;;21.64;56.50;99843.69;4979102;28;20356;-67
2022/05/11 08:39:44;;;;;;;;;;;;;;;21.75;56.02;99836.25;4979309;28;19926;-67
2022/05/11 08:42:13;;;;;;;;;;;;;;;21.88;55.68;99837.47;4978989;28;20373;-67
2022/05/11 08:44:45;;;;;;;;;;;;;;;21.91;55.19;99832.94;4978946;28;19926;-67
2022/05/11 08:47:16;;;;;;;;;;;;;;;22.01;55.26;99838.59;4978697;28;20388;-67
2022/05/11 08:49:53;;;;;;;;;;;;;;;22.19;55.26;99832.56;4978887;28;19926;-68
2022/05/11 08:52:34;;;;;;;;;;;;;;;22.39;55.67;99835.09;4979108;28;19926;-68
2022/05/11 08:55:09;;;;;;;;;;;;;;;22.36;55.65;99840.41;4978509;28;19932;-67
2022/05/11 08:57:39;;;;;;;;;;;;;;;22.47;56.04;99835.56;4978420;28;19930;-66
2022/05/11 09:00:09;;;;;;;;;;;;;;;22.58;55.48;99830.69;4978650;28;20403;-67
2022/05/11 09:02:45;;;;;;;;;;;;;;;22.53;54.53;99832.69;4978354;28;20376;-68
2022/05/11 09:05:15;;;;;;;;;;;;;;;22.59;54.81;99837.59;4978319;28;19977;-66
2022/05/11 09:07:47;;;;;;;;;;;;;;;22.62;54.78;99832.31;4978605;28;20407;-67
2022/05/11 09:10:20;;;;;;;;;;;;;;;22.68;54.56;99826.78;4978596;28;20016;-67
2022/05/11 09:12:52;;;;;;;;;;;;;;;22.89;54.67;99826.69;4978207;28;19926;-66
2022/05/11 09:15:21;;;;;;;;;;;;;;;23.03;54.32;99822.50;4978813;28;19926;-67
2022/05/11 09:17:50;;;;;;;;;;;;;;;23.19;54.01;99827.75;4978091;28;20272;-66
2022/05/11 09:20:20;;;;;;;;;;;;;;;23.20;53.38;99829.47;4978039;28;19926;-67
2022/05/11 09:22:59;;;;;;;;;;;;;;;23.18;53.48;99826.06;4977777;28;20012;-66
2022/05/11 09:25:30;;;;;;;;;;;;;;;23.22;53.17;99836.28;4977945;28;19968;-66
2022/05/11 09:28:10;;;;;;;;;;;;;;;23.34;53.50;99837.44;4977679;28;20372;-70
2022/05/11 09:30:41;;;;;;;;;;;;;;;23.21;52.29;99836.34;4977785;28;20013;-67
2022/05/11 09:33:14;;;;;;;;;;;;;;;23.26;52.47;99843.00;4978196;28;20017;-66
2022/05/11 09:35:43;;;;;;;;;;;;;;;23.42;53.22;99835.28;4977695;28;19932;-66
2022/05/11 09:38:29;;;;;;;;;;;;;;;23.60;53.53;99834.38;4978017;28;20384;-68
2022/05/11 09:41:01;;;;;;;;;;;;;;;23.63;53.79;99829.00;4977660;28;19929;-67
2022/05/11 09:43:32;;;;;;;;;;;;;;;23.65;54.55;99826.31;4977495;28;19976;-68
2022/05/11 09:46:01;;;;;;;;;;;;;;;23.63;54.60;99822.94;4976745;28;20013;-67
2022/05/11 09:48:37;;;;;;;;;;;;;;;23.75;54.94;99822.31;4977408;28;19973;-68
2022/05/11 09:51:17;;;;;;;;;;;;;;;23.92;55.30;99825.69;4977537;28;20012;-68
2022/05/11 09:53:50;;;;;;;;;;;;;;;24.09;54.44;99816.19;4992367;28;19957;-67
2022/05/11 09:56:43;;;;;;;;;;;;;;;24.17;53.33;99827.88;4977703;28;19976;-67
2022/05/11 09:59:19;;;;;;;;;;;;;;;24.24;53.58;99820.56;4976221;28;19926;-67
2022/05/11 10:01:49;;;;;;;;;;;;;;;24.34;52.75;99821.75;4977688;28;20025;-68
2022/05/11 10:04:18;;;;;;;;;;;;;;;24.43;52.11;99816.00;4977151;28;20021;-67
2022/05/11 10:07:06;;;;;;;;;;;;;;;24.57;51.43;99818.72;4977665;28;20434;-66
2022/05/11 10:09:39;;;;;;;;;;;;;;;24.71;50.97;99816.19;4977152;28;19926;-67
2022/05/11 10:12:12;;;;;;;;;;;;;;;24.63;51.17;99815.75;4977177;28;20017;-68
2022/05/11 10:23:06;;;;;;;;;;;;;;;24.91;50.34;99815.06;4977121;28;20257;-67
2022/05/11 10:25:38;;;;;;;;;;;;;;;24.92;48.91;99812.38;4976806;28;19925;-66
2022/05/11 10:28:16;;;;;;;;;;;;;;;24.99;50.21;99816.31;4977110;28;19926;-67
2022/05/11 10:30:50;;;;;;;;;;;;;;;25.06;49.99;99807.19;4977326;28;19984;-66
2022/05/11 10:33:29;;;;;;;;;;;;;;;24.92;48.59;99808.91;4976932;28;19927;-66
2022/05/11 10:36:04;;;;;;;;;;;;;;;24.96;48.96;99806.03;4976406;28;19965;-66
2022/05/11 10:38:50;;;;;;;;;;;;;;;25.01;50.29;99813.59;4976184;28;20376;-67
2022/05/11 10:41:25;;;;;;;;;;;;;;;25.11;50.87;99810.38;4976420;28;20404;-66
2022/05/11 10:44:02;;;;;;;;;;;;;;;25.20;49.03;99799.38;4976622;28;20327;-66
2022/05/11 10:46:35;;;;;;;;;;;;;;;25.29;48.67;99801.47;4976837;28;19926;-66
2022/05/11 10:49:16;;;;;;;;;;;;;;;25.35;47.84;99802.03;4976796;28;19926;-67
2022/05/11 10:51:48;;;;;;;;;;;;;;;25.54;48.61;99792.19;4976762;28;19930;-67
2022/05/11 10:54:30;;;;;;;;;;;;;;;25.71;48.03;99794.63;4976367;28;20079;-66
2022/05/11 10:57:04;;;;;;;;;;;;;;;25.75;47.05;99788.25;4975294;28;20384;-67
2022/05/11 10:59:44;;;;;;;;;;;;;;;25.74;46.70;99789.22;4975566;28;20029;-67
2022/05/11 11:02:24;;;;;;;;;;;;;;;25.75;46.81;99786.50;4976157;28;19926;-67
2022/05/11 11:05:01;;;;;;;;;;;;;;;25.61;44.65;99783.03;4976297;28;19930;-67
2022/05/11 11:07:32;;;;;;;;;;;;;;;25.53;44.96;99780.06;4976770;28;19926;-65
2022/05/11 11:10:07;;;;;;;;;;;;;;;25.49;44.26;99778.56;4976271;28;20439;-66
2022/05/11 11:12:47;;;;;;;;;;;;;;;25.47;45.52;99776.03;4976058;28;19926;-67
2022/05/11 11:15:19;;;;;;;;;;;;;;;25.64;45.96;99769.78;4975988;28;19926;-66
2022/05/11 11:17:48;;;;;;;;;;;;;;;25.85;45.80;99765.84;4976471;28;20348;-67
2022/05/11 11:20:22;;;;;;;;;;;;;;;25.99;46.59;99768.44;4958911;28;20332;-68
2022/05/11 11:23:02;;;;;;;;;;;;;;;26.19;46.20;99764.63;4975773;28;19933;-66
2022/05/11 11:25:44;;;;;;;;;;;;;;;26.30;46.36;99754.31;4975265;28;19949;-67
2022/05/11 11:28:15;;;;;;;;;;;;;;;26.32;45.08;99761.09;4975057;28;21618;-66
2022/05/11 11:31:07;;;;;;;;;;;;;;;26.39;45.13;99758.97;4975606;28;19926;-66
2022/05/11 11:33:38;;;;;;;;;;;;;;;26.44;43.92;99760.31;4975690;28;19926;-66
2022/05/11 11:36:27;;;;;;;;;;;;;;;26.44;42.87;99757.69;4975564;28;20439;-66
2022/05/11 11:38:58;;;;;;;;;;;;;;;26.47;42.32;99749.66;4975606;28;19926;-67
2022/05/11 11:41:28;;;;;;;;;;;;;;;26.56;42.98;99756.91;4975508;28;20038;-66
2022/05/11 11:43:58;;;;;;;;;;;;;;;26.75;42.56;99753.09;4975658;28;20020;-68
2022/05/11 11:46:33;;;;;;;;;;;;;;;26.86;42.19;99750.63;4975463;28;19925;-67
2022/05/11 11:49:03;;;;;;;;;;;;;;;26.93;41.23;99746.66;4975366;28;19933;-67
2022/05/11 11:51:34;;;;;;;;;;;;;;;26.93;40.87;99746.66;4975231;28;19926;-66
2022/05/11 11:54:03;;;;;;;;;;;;;;;27.01;41.42;99747.00;4975655;28;19949;-65
2022/05/11 11:56:37;;;;;;;;;;;;;;;26.88;40.57;99743.50;4975367;28;19932;-66
2022/05/11 11:59:12;;;;;;;;;;;;;;;26.84;41.42;99742.03;4975528;28;20335;-66
2022/05/11 12:01:43;;;;;;;;;;;;;;;26.91;42.75;99738.06;4975561;28;20447;-68
2022/05/11 12:04:16;;;;;;;;;;;;;;;26.93;42.00;99731.78;4975193;28;19926;-67
2022/05/11 12:17:31;;;;;;;;;;;;;;;27.28;41.79;99732.03;4975094;28;19973;-72
2022/05/11 12:20:02;;;;;;;;;;;;;;;27.23;40.85;99734.13;4974951;28;20431;-66
2022/05/11 12:22:31;;;;;;;;;;;;;;;27.32;40.87;99730.88;4974992;28;20371;-67
2022/05/11 12:25:02;;;;;;;;;;;;;;;27.28;40.90;99729.41;4975070;28;19930;-65
2022/05/11 12:27:32;;;;;;;;;;;;;;;27.23;40.35;99724.47;4974844;28;20024;-66
2022/05/11 12:30:02;;;;;;;;;;;;;;;26.99;38.74;99722.69;4958708;28;20280;-67
2022/05/11 12:32:35;;;;;;;;;;;;;;;27.00;40.29;99716.47;4974936;28;19933;-67
2022/05/11 12:35:11;;;;;;;;;;;;;;;27.01;40.77;99708.53;4975096;28;20368;-67
2022/05/11 12:37:43;;;;;;;;;;;;;;;26.92;40.23;99703.09;4975155;28;19926;-66
2022/05/11 12:40:15;;;;;;;;;;;;;;;26.85;40.41;99704.44;4975279;28;19977;-66
2022/05/11 12:42:45;;;;;;;;;;;;;;;26.83;41.25;99706.28;4974800;28;19926;-65
2022/05/11 12:45:15;;;;;;;;;;;;;;;26.87;41.88;99706.00;4974918;28;19926;-67
2022/05/11 12:47:47;;;;;;;;;;;;;;;26.96;41.86;99699.31;4974873;28;20444;-67
2022/05/11 12:50:27;;;;;;;;;;;;;;;27.09;41.33;99697.53;4975128;28;19973;-66
2022/05/11 12:53:02;;;;;;;;;;;;;;;27.03;39.46;99687.47;4975194;28;19926;-67
2022/05/11 12:55:34;;;;;;;;;;;;;;;27.14;39.99;99690.19;4974690;28;19926;-67
2022/05/11 12:58:03;;;;;;;;;;;;;;;27.22;39.47;99693.13;4974703;28;19957;-68
2022/05/11 13:00:36;;;;;;;;;;;;;;;27.16;40.29;99685.69;4975066;28;19930;-68
2022/05/11 13:03:19;;;;;;;;;;;;;;;27.05;40.88;99688.19;4976702;28;19930;-67
2022/05/11 13:05:50;;;;;;;;;;;;;;;27.09;40.53;99682.63;4994083;28;20376;-67
2022/05/11 13:08:19;;;;;;;;;;;;;;;27.09;39.51;99684.44;4978359;28;20381;-68
2022/05/11 13:10:48;;;;;;;;;;;;;;;27.07;37.41;99676.66;4978150;28;19934;-67
2022/05/11 13:13:31;;;;;;;;;;;;;;;27.10;37.26;99671.22;4978193;28;20370;-67
2022/05/11 13:16:05;;;;;;;;;;;;;;;27.07;37.41;99670.56;4978198;28;19930;-67
2022/05/11 13:18:38;;;;;;;;;;;;;;;26.96;37.60;99667.88;4978992;28;19926;-68
2022/05/11 13:21:09;;;;;;;;;;;;;;;26.90;37.56;99657.81;4978035;28;20379;-66
2022/05/11 13:23:40;;;;;;;;;;;;;;;26.90;37.28;99657.81;4978045;28;19926;-67
2022/05/11 13:26:09;;;;;;;;;;;;;;;26.77;38.29;99656.94;4977585;28;20025;-66
2022/05/11 13:28:41;;;;;;;;;;;;;;;26.67;38.09;99658.47;4977862;28;19933;-67
2022/05/11 13:31:21;;;;;;;;;;;;;;;26.65;37.51;99647.25;4978549;28;19926;-67
2022/05/11 13:33:50;;;;;;;;;;;;;;;26.72;38.62;99656.38;4978118;28;19949;-67
2022/05/11 13:36:22;;;;;;;;;;;;;;;26.72;38.40;99649.38;4977799;28;19926;-66
2022/05/11 13:38:53;;;;;;;;;;;;;;;26.76;37.04;99650.88;4977919;28;20439;-66
2022/05/11 13:41:23;;;;;;;;;;;;;;;26.75;38.56;99651.81;4977955;28;20295;-67
2022/05/11 13:43:54;;;;;;;;;;;;;;;26.69;39.22;99646.09;4978020;28;19952;-68
2022/05/11 13:46:35;;;;;;;;;;;;;;;26.58;38.85;99647.69;4977525;28;20040;-68
2022/05/11 13:49:14;;;;;;;;;;;;;;;26.55;38.59;99647.03;4977610;28;19981;-67
2022/05/11 13:51:44;;;;;;;;;;;;;;;26.63;38.72;99643.91;4977579;28;20443;-68
2022/05/11 13:54:20;;;;;;;;;;;;;;;26.63;38.04;99635.09;4977686;28;20272;-67
2022/05/11 13:57:00;;;;;;;;;;;;;;;26.65;38.88;99631.56;4977752;28;20376;-67
2022/05/11 13:59:28;;;;;;;;;;;;;;;26.67;39.77;99645.38;4977754;28;19997;-67
2022/05/11 14:01:59;;;;;;;;;;;;;;;26.58;39.37;99625.91;4977337;28;19926;-67
2022/05/11 14:04:31;;;;;;;;;;;;;;;26.58;39.42;99624.13;4977285;28;20384;-67
2022/05/11 14:07:03;;;;;;;;;;;;;;;26.58;38.50;99626.75;4992228;28;19957;-66
2022/05/11 14:09:36;;;;;;;;;;;;;;;26.57;38.15;99619.81;4977231;28;20030;-67
2022/05/11 14:12:05;;;;;;;;;;;;;;;26.59;39.07;99617.94;4977388;28;20277;-67